sensor_id;sensor_type;location;lat;lon;timestamp;P1;durP1;ratioP1;P2;durP2;ratioP2
37407;SDS011;24866;50.248;8.252;2024-01-07T00:01:50;21.73;;;11.00;;
37407;SDS011;24866;50.248;8.252;2024-01-07T00:04:20;21.13;;;11.52;;
37407;SDS011;24866;50.248;8.252;2024-01-07T00:06:50;18.52;;;10.00;;
37407;SDS011;24866;50.248;8.252;2024-01-07T00:09:19;15.77;;;8.13;;
37407;SDS011;24866;50.248;8.252;2024-01-07T00:11:49;20.70;;;10.73;;
37407;SDS011;24866;50.248;8.252;2024-01-07T00:14:21;19.95;;;10.48;;
37407;SDS011;24866;50.248;8.252;2024-01-07T00:16:51;17.73;;;9.75;;
37407;SDS011;24866;50.248;8.252;2024-01-07T00:19:20;19.63;;;9.90;;
37407;SDS011;24866;50.248;8.252;2024-01-07T00:21:50;16.63;;;9.80;;
37407;SDS011;24866;50.248;8.252;2024-01-07T00:24:20;16.52;;;8.93;;
37407;SDS011;24866;50.248;8.252;2024-01-07T00:26:50;15.70;;;8.88;;
37407;SDS011;24866;50.248;8.252;2024-01-07T00:29:21;18.35;;;10.07;;
37407;SDS011;24866;50.248;8.252;2024-01-07T00:31:51;15.75;;;6.30;;
37407;SDS011;24866;50.248;8.252;2024-01-07T00:34:21;14.43;;;7.75;;
37407;SDS011;24866;50.248;8.252;2024-01-07T00:36:51;14.30;;;8.52;;
37407;SDS011;24866;50.248;8.252;2024-01-07T00:39:21;14.93;;;8.68;;
37407;SDS011;24866;50.248;8.252;2024-01-07T00:41:51;14.82;;;7.78;;
37407;SDS011;24866;50.248;8.252;2024-01-07T00:44:22;15.52;;;9.23;;
37407;SDS011;24866;50.248;8.252;2024-01-07T00:46:52;15.38;;;8.50;;
37407;SDS011;24866;50.248;8.252;2024-01-07T00:49:22;14.80;;;8.00;;
37407;SDS011;24866;50.248;8.252;2024-01-07T00:51:52;14.20;;;8.98;;
37407;SDS011;24866;50.248;8.252;2024-01-07T00:54:22;15.02;;;8.13;;
37407;SDS011;24866;50.248;8.252;2024-01-07T00:56:52;15.07;;;8.35;;
37407;SDS011;24866;50.248;8.252;2024-01-07T00:59:23;13.20;;;7.93;;
37407;SDS011;24866;50.248;8.252;2024-01-07T01:01:53;11.57;;;7.85;;
37407;SDS011;24866;50.248;8.252;2024-01-07T01:04:22;13.73;;;7.97;;
37407;SDS011;24866;50.248;8.252;2024-01-07T01:06:52;13.95;;;7.60;;
37407;SDS011;24866;50.248;8.252;2024-01-07T01:09:22;13.20;;;7.97;;
37407;SDS011;24866;50.248;8.252;2024-01-07T01:11:52;14.45;;;7.60;;
37407;SDS011;24866;50.248;8.252;2024-01-07T01:14:23;12.27;;;7.32;;
37407;SDS011;24866;50.248;8.252;2024-01-07T01:16:53;11.93;;;6.85;;
37407;SDS011;24866;50.248;8.252;2024-01-07T01:19:23;10.70;;;6.68;;
37407;SDS011;24866;50.248;8.252;2024-01-07T01:21:53;11.90;;;7.25;;
37407;SDS011;24866;50.248;8.252;2024-01-07T01:24:23;12.52;;;7.65;;
37407;SDS011;24866;50.248;8.252;2024-01-07T01:26:53;10.60;;;7.13;;
37407;SDS011;24866;50.248;8.252;2024-01-07T01:29:24;10.63;;;6.97;;
37407;SDS011;24866;50.248;8.252;2024-01-07T01:31:54;10.35;;;6.03;;
37407;SDS011;24866;50.248;8.252;2024-01-07T01:34:23;9.23;;;6.15;;
37407;SDS011;24866;50.248;8.252;2024-01-07T01:36:53;12.07;;;7.28;;
37407;SDS011;24866;50.248;8.252;2024-01-07T01:39:23;10.43;;;7.00;;
37407;SDS011;24866;50.248;8.252;2024-01-07T01:41:53;8.68;;;5.53;;
37407;SDS011;24866;50.248;8.252;2024-01-07T01:44:25;11.10;;;6.40;;
37407;SDS011;24866;50.248;8.252;2024-01-07T01:46:56;9.32;;;6.15;;
37407;SDS011;24866;50.248;8.252;2024-01-07T01:49:25;9.70;;;5.38;;
37407;SDS011;24866;50.248;8.252;2024-01-07T01:51:56;8.35;;;5.10;;
37407;SDS011;24866;50.248;8.252;2024-01-07T01:54:26;10.75;;;6.13;;
37407;SDS011;24866;50.248;8.252;2024-01-07T01:56:56;9.30;;;5.45;;
37407;SDS011;24866;50.248;8.252;2024-01-07T01:59:28;8.77;;;5.63;;
37407;SDS011;24866;50.248;8.252;2024-01-07T02:01:58;10.20;;;6.20;;
37407;SDS011;24866;50.248;8.252;2024-01-07T02:04:28;10.02;;;6.03;;
37407;SDS011;24866;50.248;8.252;2024-01-07T02:06:57;8.20;;;5.40;;
37407;SDS011;24866;50.248;8.252;2024-01-07T02:09:27;9.65;;;5.57;;
37407;SDS011;24866;50.248;8.252;2024-01-07T02:12:00;10.05;;;5.05;;
37407;SDS011;24866;50.248;8.252;2024-01-07T02:14:32;8.60;;;5.38;;
37407;SDS011;24866;50.248;8.252;2024-01-07T02:17:02;8.63;;;5.28;;
37407;SDS011;24866;50.248;8.252;2024-01-07T02:19:32;10.10;;;5.75;;
37407;SDS011;24866;50.248;8.252;2024-01-07T02:22:02;8.70;;;5.32;;
37407;SDS011;24866;50.248;8.252;2024-01-07T02:24:34;9.07;;;5.20;;
37407;SDS011;24866;50.248;8.252;2024-01-07T02:27:04;9.65;;;5.72;;
37407;SDS011;24866;50.248;8.252;2024-01-07T02:29:34;9.48;;;6.05;;
37407;SDS011;24866;50.248;8.252;2024-01-07T02:32:04;9.25;;;5.55;;
37407;SDS011;24866;50.248;8.252;2024-01-07T02:34:35;9.10;;;5.82;;
37407;SDS011;24866;50.248;8.252;2024-01-07T02:37:05;9.10;;;5.20;;
37407;SDS011;24866;50.248;8.252;2024-01-07T02:39:36;10.00;;;5.70;;
37407;SDS011;24866;50.248;8.252;2024-01-07T02:42:06;8.77;;;5.22;;
37407;SDS011;24866;50.248;8.252;2024-01-07T02:44:35;8.98;;;5.15;;
37407;SDS011;24866;50.248;8.252;2024-01-07T02:47:06;8.50;;;5.28;;
37407;SDS011;24866;50.248;8.252;2024-01-07T02:49:36;8.60;;;5.57;;
37407;SDS011;24866;50.248;8.252;2024-01-07T02:52:05;10.48;;;5.28;;
37407;SDS011;24866;50.248;8.252;2024-01-07T02:54:37;8.30;;;5.30;;
37407;SDS011;24866;50.248;8.252;2024-01-07T02:57:06;8.65;;;5.25;;
37407;SDS011;24866;50.248;8.252;2024-01-07T02:59:36;7.70;;;5.45;;
37407;SDS011;24866;50.248;8.252;2024-01-07T03:02:06;10.20;;;5.55;;
37407;SDS011;24866;50.248;8.252;2024-01-07T03:04:36;9.25;;;4.72;;
37407;SDS011;24866;50.248;8.252;2024-01-07T03:07:06;9.30;;;5.22;;
37407;SDS011;24866;50.248;8.252;2024-01-07T03:09:37;10.52;;;5.50;;
37407;SDS011;24866;50.248;8.252;2024-01-07T03:12:07;9.63;;;4.85;;
37407;SDS011;24866;50.248;8.252;2024-01-07T03:14:37;8.32;;;4.25;;
37407;SDS011;24866;50.248;8.252;2024-01-07T03:17:07;7.72;;;4.65;;
37407;SDS011;24866;50.248;8.252;2024-01-07T03:19:37;8.77;;;5.07;;
37407;SDS011;24866;50.248;8.252;2024-01-07T03:22:07;8.13;;;4.63;;
37407;SDS011;24866;50.248;8.252;2024-01-07T03:24:38;9.93;;;4.63;;
37407;SDS011;24866;50.248;8.252;2024-01-07T03:27:10;7.97;;;4.35;;
37407;SDS011;24866;50.248;8.252;2024-01-07T03:29:40;8.52;;;4.78;;
37407;SDS011;24866;50.248;8.252;2024-01-07T03:32:10;7.25;;;4.35;;
37407;SDS011;24866;50.248;8.252;2024-01-07T03:34:40;8.77;;;4.15;;
37407;SDS011;24866;50.248;8.252;2024-01-07T03:37:10;7.25;;;4.38;;
37407;SDS011;24866;50.248;8.252;2024-01-07T03:39:41;7.25;;;4.60;;
37407;SDS011;24866;50.248;8.252;2024-01-07T03:42:11;8.85;;;4.75;;
37407;SDS011;24866;50.248;8.252;2024-01-07T03:44:41;11.10;;;3.95;;
37407;SDS011;24866;50.248;8.252;2024-01-07T03:47:11;7.93;;;4.30;;
37407;SDS011;24866;50.248;8.252;2024-01-07T03:49:41;7.35;;;4.18;;
37407;SDS011;24866;50.248;8.252;2024-01-07T03:52:10;7.68;;;4.03;;
37407;SDS011;24866;50.248;8.252;2024-01-07T03:54:41;6.28;;;3.90;;
37407;SDS011;24866;50.248;8.252;2024-01-07T03:57:11;6.40;;;3.97;;
37407;SDS011;24866;50.248;8.252;2024-01-07T03:59:41;7.28;;;3.95;;
37407;SDS011;24866;50.248;8.252;2024-01-07T04:02:11;6.68;;;3.75;;
37407;SDS011;24866;50.248;8.252;2024-01-07T04:04:44;8.23;;;3.65;;
37407;SDS011;24866;50.248;8.252;2024-01-07T04:07:14;7.65;;;3.88;;
37407;SDS011;24866;50.248;8.252;2024-01-07T04:09:45;7.95;;;3.90;;
37407;SDS011;24866;50.248;8.252;2024-01-07T04:12:15;6.78;;;3.67;;
37407;SDS011;24866;50.248;8.252;2024-01-07T04:14:45;5.63;;;3.30;;
37407;SDS011;24866;50.248;8.252;2024-01-07T04:17:15;5.78;;;3.33;;
37407;SDS011;24866;50.248;8.252;2024-01-07T04:19:45;6.32;;;3.55;;
37407;SDS011;24866;50.248;8.252;2024-01-07T04:22:15;7.90;;;3.63;;
37407;SDS011;24866;50.248;8.252;2024-01-07T04:24:47;7.07;;;3.80;;
37407;SDS011;24866;50.248;8.252;2024-01-07T04:27:16;5.82;;;3.28;;
37407;SDS011;24866;50.248;8.252;2024-01-07T04:29:46;7.72;;;3.72;;
37407;SDS011;24866;50.248;8.252;2024-01-07T04:32:16;7.07;;;2.85;;
37407;SDS011;24866;50.248;8.252;2024-01-07T04:34:46;8.57;;;3.33;;
37407;SDS011;24866;50.248;8.252;2024-01-07T04:37:16;7.45;;;3.80;;
37407;SDS011;24866;50.248;8.252;2024-01-07T04:39:48;6.75;;;4.07;;
37407;SDS011;24866;50.248;8.252;2024-01-07T04:42:18;8.00;;;3.97;;
37407;SDS011;24866;50.248;8.252;2024-01-07T04:44:48;7.30;;;3.83;;
37407;SDS011;24866;50.248;8.252;2024-01-07T04:47:27;7.13;;;3.60;;
37407;SDS011;24866;50.248;8.252;2024-01-07T04:49:58;6.18;;;3.45;;
37407;SDS011;24866;50.248;8.252;2024-01-07T04:52:28;6.93;;;3.33;;
37407;SDS011;24866;50.248;8.252;2024-01-07T04:54:59;5.40;;;2.67;;
37407;SDS011;24866;50.248;8.252;2024-01-07T04:57:29;7.50;;;3.60;;
37407;SDS011;24866;50.248;8.252;2024-01-07T04:59:59;9.05;;;4.03;;
37407;SDS011;24866;50.248;8.252;2024-01-07T05:02:29;7.05;;;3.47;;
37407;SDS011;24866;50.248;8.252;2024-01-07T05:04:59;6.50;;;3.25;;
37407;SDS011;24866;50.248;8.252;2024-01-07T05:07:28;7.75;;;3.20;;
37407;SDS011;24866;50.248;8.252;2024-01-07T05:10:00;7.80;;;3.55;;
37407;SDS011;24866;50.248;8.252;2024-01-07T05:12:29;6.68;;;3.92;;
37407;SDS011;24866;50.248;8.252;2024-01-07T05:14:59;9.85;;;4.88;;
37407;SDS011;24866;50.248;8.252;2024-01-07T05:17:29;8.90;;;4.32;;
37407;SDS011;24866;50.248;8.252;2024-01-07T05:19:59;7.90;;;4.20;;
37407;SDS011;24866;50.248;8.252;2024-01-07T05:22:28;8.23;;;4.50;;
37407;SDS011;24866;50.248;8.252;2024-01-07T05:25:00;10.82;;;5.05;;
37407;SDS011;24866;50.248;8.252;2024-01-07T05:27:30;12.32;;;5.45;;
37407;SDS011;24866;50.248;8.252;2024-01-07T05:29:59;10.20;;;5.57;;
37407;SDS011;24866;50.248;8.252;2024-01-07T05:32:29;9.20;;;5.00;;
37407;SDS011;24866;50.248;8.252;2024-01-07T05:34:59;10.82;;;6.10;;
37407;SDS011;24866;50.248;8.252;2024-01-07T05:37:29;13.13;;;6.43;;
37407;SDS011;24866;50.248;8.252;2024-01-07T05:40:00;13.32;;;6.95;;
37407;SDS011;24866;50.248;8.252;2024-01-07T05:42:30;14.43;;;6.93;;
37407;SDS011;24866;50.248;8.252;2024-01-07T05:45:00;16.02;;;8.55;;
37407;SDS011;24866;50.248;8.252;2024-01-07T05:47:30;15.13;;;7.82;;
37407;SDS011;24866;50.248;8.252;2024-01-07T05:50:00;16.00;;;9.48;;
37407;SDS011;24866;50.248;8.252;2024-01-07T05:52:31;14.07;;;6.25;;
37407;SDS011;24866;50.248;8.252;2024-01-07T05:55:02;17.08;;;8.57;;
37407;SDS011;24866;50.248;8.252;2024-01-07T05:57:32;18.35;;;8.13;;
37407;SDS011;24866;50.248;8.252;2024-01-07T06:00:04;18.80;;;9.10;;
37407;SDS011;24866;50.248;8.252;2024-01-07T06:02:34;17.40;;;8.02;;
37407;SDS011;24866;50.248;8.252;2024-01-07T06:05:04;18.92;;;8.98;;
37407;SDS011;24866;50.248;8.252;2024-01-07T06:07:35;16.20;;;8.68;;
37407;SDS011;24866;50.248;8.252;2024-01-07T06:10:06;20.60;;;7.75;;
37407;SDS011;24866;50.248;8.252;2024-01-07T06:12:36;17.52;;;8.40;;
37407;SDS011;24866;50.248;8.252;2024-01-07T06:15:06;14.93;;;8.15;;
37407;SDS011;24866;50.248;8.252;2024-01-07T06:17:37;16.55;;;8.00;;
37407;SDS011;24866;50.248;8.252;2024-01-07T06:20:07;17.77;;;9.40;;
37407;SDS011;24866;50.248;8.252;2024-01-07T06:22:37;15.98;;;8.02;;
37407;SDS011;24866;50.248;8.252;2024-01-07T06:25:09;16.40;;;7.55;;
37407;SDS011;24866;50.248;8.252;2024-01-07T06:27:38;13.90;;;8.07;;
37407;SDS011;24866;50.248;8.252;2024-01-07T06:30:09;17.55;;;7.75;;
37407;SDS011;24866;50.248;8.252;2024-01-07T06:32:40;13.30;;;7.32;;
37407;SDS011;24866;50.248;8.252;2024-01-07T06:35:09;14.82;;;7.95;;
37407;SDS011;24866;50.248;8.252;2024-01-07T06:37:39;16.67;;;8.50;;
37407;SDS011;24866;50.248;8.252;2024-01-07T06:40:11;17.92;;;8.70;;
37407;SDS011;24866;50.248;8.252;2024-01-07T06:42:41;15.73;;;8.60;;
37407;SDS011;24866;50.248;8.252;2024-01-07T06:45:12;14.77;;;7.45;;
37407;SDS011;24866;50.248;8.252;2024-01-07T06:47:42;15.75;;;9.25;;
37407;SDS011;24866;50.248;8.252;2024-01-07T06:50:11;17.02;;;9.15;;
37407;SDS011;24866;50.248;8.252;2024-01-07T06:52:41;16.27;;;9.07;;
37407;SDS011;24866;50.248;8.252;2024-01-07T06:55:13;16.95;;;9.35;;
37407;SDS011;24866;50.248;8.252;2024-01-07T06:57:43;15.32;;;9.00;;
37407;SDS011;24866;50.248;8.252;2024-01-07T07:00:13;17.48;;;9.50;;
37407;SDS011;24866;50.248;8.252;2024-01-07T07:02:43;13.98;;;8.52;;
37407;SDS011;24866;50.248;8.252;2024-01-07T07:05:13;15.27;;;9.27;;
37407;SDS011;24866;50.248;8.252;2024-01-07T07:07:43;13.90;;;7.85;;
37407;SDS011;24866;50.248;8.252;2024-01-07T07:10:14;13.57;;;7.32;;
37407;SDS011;24866;50.248;8.252;2024-01-07T07:12:44;11.60;;;7.40;;
37407;SDS011;24866;50.248;8.252;2024-01-07T07:15:14;14.95;;;8.27;;
37407;SDS011;24866;50.248;8.252;2024-01-07T07:17:44;17.75;;;9.90;;
37407;SDS011;24866;50.248;8.252;2024-01-07T07:20:14;12.43;;;7.35;;
37407;SDS011;24866;50.248;8.252;2024-01-07T07:22:45;12.63;;;7.53;;
37407;SDS011;24866;50.248;8.252;2024-01-07T07:25:16;13.52;;;8.18;;
37407;SDS011;24866;50.248;8.252;2024-01-07T07:27:46;14.23;;;9.00;;
37407;SDS011;24866;50.248;8.252;2024-01-07T07:30:16;13.02;;;8.05;;
37407;SDS011;24866;50.248;8.252;2024-01-07T07:32:46;13.77;;;9.05;;
37407;SDS011;24866;50.248;8.252;2024-01-07T07:35:16;14.15;;;8.80;;
37407;SDS011;24866;50.248;8.252;2024-01-07T07:37:47;11.95;;;7.85;;
37407;SDS011;24866;50.248;8.252;2024-01-07T07:40:18;12.98;;;7.78;;
37407;SDS011;24866;50.248;8.252;2024-01-07T07:42:48;10.30;;;6.45;;
37407;SDS011;24866;50.248;8.252;2024-01-07T07:45:18;13.57;;;8.68;;
37407;SDS011;24866;50.248;8.252;2024-01-07T07:47:47;13.60;;;7.57;;
37407;SDS011;24866;50.248;8.252;2024-01-07T07:50:17;14.10;;;8.35;;
37407;SDS011;24866;50.248;8.252;2024-01-07T07:52:47;12.00;;;7.53;;
37407;SDS011;24866;50.248;8.252;2024-01-07T07:55:20;15.23;;;8.57;;
37407;SDS011;24866;50.248;8.252;2024-01-07T07:57:49;15.52;;;8.10;;
37407;SDS011;24866;50.248;8.252;2024-01-07T08:00:20;12.40;;;6.20;;
37407;SDS011;24866;50.248;8.252;2024-01-07T08:02:50;16.33;;;9.15;;
37407;SDS011;24866;50.248;8.252;2024-01-07T08:05:20;13.57;;;8.07;;
37407;SDS011;24866;50.248;8.252;2024-01-07T08:07:50;19.83;;;10.45;;
37407;SDS011;24866;50.248;8.252;2024-01-07T08:10:21;18.00;;;8.45;;
37407;SDS011;24866;50.248;8.252;2024-01-07T08:12:51;14.43;;;8.50;;
37407;SDS011;24866;50.248;8.252;2024-01-07T08:15:22;15.73;;;9.27;;
37407;SDS011;24866;50.248;8.252;2024-01-07T08:17:51;14.98;;;9.18;;
37407;SDS011;24866;50.248;8.252;2024-01-07T08:20:22;17.70;;;10.63;;
37407;SDS011;24866;50.248;8.252;2024-01-07T08:22:51;14.70;;;8.85;;
37407;SDS011;24866;50.248;8.252;2024-01-07T08:25:22;14.95;;;7.90;;
37407;SDS011;24866;50.248;8.252;2024-01-07T08:27:52;18.17;;;9.13;;
37407;SDS011;24866;50.248;8.252;2024-01-07T08:30:22;17.35;;;10.18;;
37407;SDS011;24866;50.248;8.252;2024-01-07T08:32:53;17.58;;;10.57;;
37407;SDS011;24866;50.248;8.252;2024-01-07T08:35:24;17.38;;;10.20;;
37407;SDS011;24866;50.248;8.252;2024-01-07T08:37:54;18.02;;;8.80;;
37407;SDS011;24866;50.248;8.252;2024-01-07T08:40:25;16.50;;;8.85;;
37407;SDS011;24866;50.248;8.252;2024-01-07T08:42:55;15.57;;;9.63;;
37407;SDS011;24866;50.248;8.252;2024-01-07T08:45:25;16.90;;;9.98;;
37407;SDS011;24866;50.248;8.252;2024-01-07T08:47:55;14.02;;;8.02;;
37407;SDS011;24866;50.248;8.252;2024-01-07T08:50:24;12.77;;;6.97;;
37407;SDS011;24866;50.248;8.252;2024-01-07T08:52:55;13.48;;;8.27;;
37407;SDS011;24866;50.248;8.252;2024-01-07T08:55:29;15.10;;;7.43;;
37407;SDS011;24866;50.248;8.252;2024-01-07T08:57:59;14.60;;;7.85;;
37407;SDS011;24866;50.248;8.252;2024-01-07T09:00:30;15.93;;;8.95;;
37407;SDS011;24866;50.248;8.252;2024-01-07T09:03:00;15.38;;;8.05;;
37407;SDS011;24866;50.248;8.252;2024-01-07T09:05:30;16.58;;;8.45;;
37407;SDS011;24866;50.248;8.252;2024-01-07T09:08:00;14.07;;;8.35;;
37407;SDS011;24866;50.248;8.252;2024-01-07T09:10:31;15.18;;;7.03;;
37407;SDS011;24866;50.248;8.252;2024-01-07T09:13:02;14.30;;;8.43;;
37407;SDS011;24866;50.248;8.252;2024-01-07T09:15:32;13.77;;;7.55;;
37407;SDS011;24866;50.248;8.252;2024-01-07T09:18:03;11.63;;;6.40;;
37407;SDS011;24866;50.248;8.252;2024-01-07T09:20:33;12.88;;;6.93;;
37407;SDS011;24866;50.248;8.252;2024-01-07T09:23:03;15.73;;;8.55;;
37407;SDS011;24866;50.248;8.252;2024-01-07T09:25:35;13.32;;;7.10;;
37407;SDS011;24866;50.248;8.252;2024-01-07T09:28:05;15.88;;;7.28;;
37407;SDS011;24866;50.248;8.252;2024-01-07T09:30:35;12.90;;;6.68;;
37407;SDS011;24866;50.248;8.252;2024-01-07T09:33:05;14.48;;;7.95;;
37407;SDS011;24866;50.248;8.252;2024-01-07T09:35:35;13.77;;;7.72;;
37407;SDS011;24866;50.248;8.252;2024-01-07T09:38:05;15.40;;;8.35;;
37407;SDS011;24866;50.248;8.252;2024-01-07T09:40:36;14.45;;;8.07;;
37407;SDS011;24866;50.248;8.252;2024-01-07T09:43:07;13.88;;;7.72;;
37407;SDS011;24866;50.248;8.252;2024-01-07T09:45:38;15.02;;;8.10;;
37407;SDS011;24866;50.248;8.252;2024-01-07T09:48:10;16.15;;;8.15;;
37407;SDS011;24866;50.248;8.252;2024-01-07T09:50:40;13.93;;;8.02;;
37407;SDS011;24866;50.248;8.252;2024-01-07T09:53:11;15.57;;;8.48;;
37407;SDS011;24866;50.248;8.252;2024-01-07T09:55:51;14.90;;;7.97;;
37407;SDS011;24866;50.248;8.252;2024-01-07T09:58:22;13.23;;;8.13;;
37407;SDS011;24866;50.248;8.252;2024-01-07T10:00:52;14.10;;;8.38;;
37407;SDS011;24866;50.248;8.252;2024-01-07T10:03:23;11.57;;;7.03;;
37407;SDS011;24866;50.248;8.252;2024-01-07T10:05:53;14.20;;;7.88;;
37407;SDS011;24866;50.248;8.252;2024-01-07T10:08:23;12.18;;;5.63;;
37407;SDS011;24866;50.248;8.252;2024-01-07T10:10:54;11.98;;;6.72;;
37407;SDS011;24866;50.248;8.252;2024-01-07T10:13:24;12.90;;;7.23;;
37407;SDS011;24866;50.248;8.252;2024-01-07T10:15:55;13.73;;;7.22;;
37407;SDS011;24866;50.248;8.252;2024-01-07T10:18:24;14.05;;;7.28;;
37407;SDS011;24866;50.248;8.252;2024-01-07T10:20:55;13.65;;;6.88;;
37407;SDS011;24866;50.248;8.252;2024-01-07T10:23:25;9.00;;;4.78;;
37407;SDS011;24866;50.248;8.252;2024-01-07T10:25:56;12.02;;;6.53;;
37407;SDS011;24866;50.248;8.252;2024-01-07T10:28:27;12.77;;;7.40;;
37407;SDS011;24866;50.248;8.252;2024-01-07T10:30:57;15.40;;;8.45;;
37407;SDS011;24866;50.248;8.252;2024-01-07T10:33:30;12.10;;;7.38;;
37407;SDS011;24866;50.248;8.252;2024-01-07T10:36:01;13.50;;;8.68;;
37407;SDS011;24866;50.248;8.252;2024-01-07T10:38:33;11.40;;;6.73;;
37407;SDS011;24866;50.248;8.252;2024-01-07T10:41:05;12.77;;;6.85;;
37407;SDS011;24866;50.248;8.252;2024-01-07T10:43:38;11.70;;;7.10;;
37407;SDS011;24866;50.248;8.252;2024-01-07T10:46:10;11.30;;;6.63;;
37407;SDS011;24866;50.248;8.252;2024-01-07T10:48:49;13.48;;;6.10;;
37407;SDS011;24866;50.248;8.252;2024-01-07T10:51:23;9.52;;;6.15;;
37407;SDS011;24866;50.248;8.252;2024-01-07T10:53:56;12.40;;;7.30;;
37407;SDS011;24866;50.248;8.252;2024-01-07T10:56:30;12.80;;;7.00;;
37407;SDS011;24866;50.248;8.252;2024-01-07T10:59:07;12.98;;;6.65;;
37407;SDS011;24866;50.248;8.252;2024-01-07T11:01:37;11.38;;;6.55;;
37407;SDS011;24866;50.248;8.252;2024-01-07T11:04:08;11.35;;;7.13;;
37407;SDS011;24866;50.248;8.252;2024-01-07T11:06:51;9.63;;;4.53;;
37407;SDS011;24866;50.248;8.252;2024-01-07T11:09:28;10.55;;;5.90;;
37407;SDS011;24866;50.248;8.252;2024-01-07T11:12:06;10.00;;;6.38;;
37407;SDS011;24866;50.248;8.252;2024-01-07T11:14:37;11.05;;;6.47;;
37407;SDS011;24866;50.248;8.252;2024-01-07T11:17:07;10.32;;;6.05;;
37407;SDS011;24866;50.248;8.252;2024-01-07T11:19:38;12.50;;;6.05;;
37407;SDS011;24866;50.248;8.252;2024-01-07T11:22:21;10.40;;;6.53;;
37407;SDS011;24866;50.248;8.252;2024-01-07T11:24:55;13.23;;;6.32;;
37407;SDS011;24866;50.248;8.252;2024-01-07T11:27:29;12.25;;;6.55;;
37407;SDS011;24866;50.248;8.252;2024-01-07T11:30:01;11.90;;;6.45;;
37407;SDS011;24866;50.248;8.252;2024-01-07T11:32:33;10.70;;;5.07;;
37407;SDS011;24866;50.248;8.252;2024-01-07T11:35:04;9.98;;;5.50;;
37407;SDS011;24866;50.248;8.252;2024-01-07T11:37:35;11.35;;;6.45;;
37407;SDS011;24866;50.248;8.252;2024-01-07T11:40:06;9.65;;;4.65;;
37407;SDS011;24866;50.248;8.252;2024-01-07T11:42:40;12.90;;;6.63;;
37407;SDS011;24866;50.248;8.252;2024-01-07T11:45:10;11.88;;;5.38;;
37407;SDS011;24866;50.248;8.252;2024-01-07T11:47:40;10.85;;;6.40;;
37407;SDS011;24866;50.248;8.252;2024-01-07T11:50:10;10.75;;;6.05;;
37407;SDS011;24866;50.248;8.252;2024-01-07T11:52:41;10.10;;;6.15;;
37407;SDS011;24866;50.248;8.252;2024-01-07T11:55:12;12.68;;;6.97;;
37407;SDS011;24866;50.248;8.252;2024-01-07T11:57:44;10.90;;;6.95;;
37407;SDS011;24866;50.248;8.252;2024-01-07T12:00:15;11.68;;;6.93;;
37407;SDS011;24866;50.248;8.252;2024-01-07T12:02:46;11.50;;;6.78;;
37407;SDS011;24866;50.248;8.252;2024-01-07T12:05:16;12.13;;;7.38;;
37407;SDS011;24866;50.248;8.252;2024-01-07T12:07:46;12.55;;;7.55;;
37407;SDS011;24866;50.248;8.252;2024-01-07T12:10:16;12.77;;;6.97;;
37407;SDS011;24866;50.248;8.252;2024-01-07T12:12:48;10.85;;;5.72;;
37407;SDS011;24866;50.248;8.252;2024-01-07T12:15:19;12.65;;;6.80;;
37407;SDS011;24866;50.248;8.252;2024-01-07T12:17:55;12.85;;;7.13;;
37407;SDS011;24866;50.248;8.252;2024-01-07T12:20:26;12.63;;;6.97;;
37407;SDS011;24866;50.248;8.252;2024-01-07T12:22:57;13.43;;;6.13;;
37407;SDS011;24866;50.248;8.252;2024-01-07T12:25:27;14.27;;;7.10;;
37407;SDS011;24866;50.248;8.252;2024-01-07T12:27:59;12.45;;;6.85;;
37407;SDS011;24866;50.248;8.252;2024-01-07T12:30:29;13.02;;;6.50;;
37407;SDS011;24866;50.248;8.252;2024-01-07T12:32:59;15.20;;;8.05;;
37407;SDS011;24866;50.248;8.252;2024-01-07T12:35:30;13.85;;;6.85;;
37407;SDS011;24866;50.248;8.252;2024-01-07T12:38:00;13.70;;;7.35;;
37407;SDS011;24866;50.248;8.252;2024-01-07T12:40:30;12.73;;;6.72;;
37407;SDS011;24866;50.248;8.252;2024-01-07T12:43:02;12.38;;;7.00;;
37407;SDS011;24866;50.248;8.252;2024-01-07T12:45:34;12.85;;;6.80;;
37407;SDS011;24866;50.248;8.252;2024-01-07T12:48:05;12.20;;;6.28;;
37407;SDS011;24866;50.248;8.252;2024-01-07T12:50:35;13.45;;;6.47;;
37407;SDS011;24866;50.248;8.252;2024-01-07T12:53:06;15.15;;;6.28;;
37407;SDS011;24866;50.248;8.252;2024-01-07T12:55:36;12.85;;;5.88;;
37407;SDS011;24866;50.248;8.252;2024-01-07T12:58:08;10.18;;;5.28;;
37407;SDS011;24866;50.248;8.252;2024-01-07T13:00:38;9.48;;;5.78;;
37407;SDS011;24866;50.248;8.252;2024-01-07T13:03:08;11.95;;;6.00;;
37407;SDS011;24866;50.248;8.252;2024-01-07T13:05:42;13.63;;;6.07;;
37407;SDS011;24866;50.248;8.252;2024-01-07T13:08:14;12.68;;;6.50;;
37407;SDS011;24866;50.248;8.252;2024-01-07T13:10:44;13.40;;;6.20;;
37407;SDS011;24866;50.248;8.252;2024-01-07T13:13:15;14.02;;;7.85;;
37407;SDS011;24866;50.248;8.252;2024-01-07T13:15:45;10.63;;;5.50;;
37407;SDS011;24866;50.248;8.252;2024-01-07T13:18:15;11.65;;;6.10;;
37407;SDS011;24866;50.248;8.252;2024-01-07T13:20:46;8.82;;;4.90;;
37407;SDS011;24866;50.248;8.252;2024-01-07T13:23:16;13.23;;;6.18;;
37407;SDS011;24866;50.248;8.252;2024-01-07T13:25:46;12.18;;;6.65;;
37407;SDS011;24866;50.248;8.252;2024-01-07T13:28:18;9.68;;;5.15;;
37407;SDS011;24866;50.248;8.252;2024-01-07T13:30:48;11.15;;;6.22;;
37407;SDS011;24866;50.248;8.252;2024-01-07T13:33:18;9.43;;;4.95;;
37407;SDS011;24866;50.248;8.252;2024-01-07T13:35:48;8.75;;;5.75;;
37407;SDS011;24866;50.248;8.252;2024-01-07T13:38:18;11.35;;;5.55;;
37407;SDS011;24866;50.248;8.252;2024-01-07T13:40:48;9.40;;;5.57;;
37407;SDS011;24866;50.248;8.252;2024-01-07T13:43:19;9.90;;;5.72;;
37407;SDS011;24866;50.248;8.252;2024-01-07T13:45:51;8.75;;;5.40;;
37407;SDS011;24866;50.248;8.252;2024-01-07T13:48:21;8.88;;;5.22;;
37407;SDS011;24866;50.248;8.252;2024-01-07T13:50:51;11.27;;;4.72;;
37407;SDS011;24866;50.248;8.252;2024-01-07T13:53:22;10.68;;;5.18;;
37407;SDS011;24866;50.248;8.252;2024-01-07T13:55:52;11.75;;;5.90;;
37407;SDS011;24866;50.248;8.252;2024-01-07T13:58:23;11.45;;;5.78;;
37407;SDS011;24866;50.248;8.252;2024-01-07T14:00:53;11.65;;;4.97;;
37407;SDS011;24866;50.248;8.252;2024-01-07T14:03:24;10.70;;;5.03;;
37407;SDS011;24866;50.248;8.252;2024-01-07T14:05:55;8.38;;;4.60;;
37407;SDS011;24866;50.248;8.252;2024-01-07T14:08:25;9.18;;;4.97;;
37407;SDS011;24866;50.248;8.252;2024-01-07T14:10:55;9.43;;;4.18;;
37407;SDS011;24866;50.248;8.252;2024-01-07T14:13:27;8.05;;;4.38;;
37407;SDS011;24866;50.248;8.252;2024-01-07T14:15:57;8.43;;;3.80;;
37407;SDS011;24866;50.248;8.252;2024-01-07T14:18:27;8.35;;;3.80;;
37407;SDS011;24866;50.248;8.252;2024-01-07T14:20:57;9.20;;;3.85;;
37407;SDS011;24866;50.248;8.252;2024-01-07T14:23:28;5.30;;;3.28;;
37407;SDS011;24866;50.248;8.252;2024-01-07T14:25:59;8.20;;;3.92;;
37407;SDS011;24866;50.248;8.252;2024-01-07T14:28:31;7.55;;;3.65;;
37407;SDS011;24866;50.248;8.252;2024-01-07T14:31:01;10.52;;;4.63;;
37407;SDS011;24866;50.248;8.252;2024-01-07T14:33:31;8.82;;;4.30;;
37407;SDS011;24866;50.248;8.252;2024-01-07T14:36:02;6.20;;;2.78;;
37407;SDS011;24866;50.248;8.252;2024-01-07T14:38:33;6.13;;;3.70;;
37407;SDS011;24866;50.248;8.252;2024-01-07T14:41:03;6.93;;;3.35;;
37407;SDS011;24866;50.248;8.252;2024-01-07T14:43:34;5.90;;;3.17;;
37407;SDS011;24866;50.248;8.252;2024-01-07T14:46:05;8.15;;;4.03;;
37407;SDS011;24866;50.248;8.252;2024-01-07T14:48:36;5.82;;;2.88;;
37407;SDS011;24866;50.248;8.252;2024-01-07T14:51:06;5.72;;;2.53;;
37407;SDS011;24866;50.248;8.252;2024-01-07T14:53:36;5.50;;;2.53;;
37407;SDS011;24866;50.248;8.252;2024-01-07T14:56:06;5.28;;;2.25;;
37407;SDS011;24866;50.248;8.252;2024-01-07T14:58:37;5.60;;;2.85;;